Time;durP1;ratioP1;P1;durP2;ratioP2;P2;SDS_P1;SDS_P2;PMS_P1;PMS_P2;Temp;Humidity;BMP_temperature;BMP_pressure;BME280_temperature;BME280_humidity;BME280_pressure;Samples;Min_cycle;Max_cycle;Signal;HPM_P1;HPM_P2
2024/02/18 00:01:01;;;;;;;1.35;0.90;;;;;;;3.32;76.89;101839.44;1679965;85;25445;-59
2024/02/18 00:03:30;;;;;;;1.60;1.50;;;;;;;3.32;76.81;101845.28;1680298;84;29754;-61
2024/02/18 00:05:59;;;;;;;1.02;0.90;;;;;;;3.30;76.60;101846.87;1680192;85;26413;-61
2024/02/18 00:08:26;;;;;;;0.88;0.88;;;;;;;3.28;76.51;101850.27;1680312;85;25582;-61
2024/02/18 00:10:53;;;;;;;0.93;0.82;;;;;;;3.26;76.26;101857.70;1680275;85;27330;-61
2024/02/18 00:13:22;;;;;;;1.20;0.90;;;;;;;3.25;76.41;101856.08;1680163;84;25428;-61
2024/02/18 00:15:49;;;;;;;1.57;1.02;;;;;;;3.25;76.00;101864.10;1680240;85;25425;-61
2024/02/18 00:18:16;;;;;;;1.22;0.80;;;;;;;3.23;76.01;101861.34;1680220;85;25693;-61
2024/02/18 00:20:42;;;;;;;1.00;0.72;;;;;;;3.22;75.96;101863.20;1680288;85;25424;-60
2024/02/18 00:23:10;;;;;;;1.10;0.90;;;;;;;3.18;75.72;101866.00;1680220;85;27332;-61
2024/02/18 00:25:38;;;;;;;1.37;0.95;;;;;;;3.16;75.79;101865.41;1680186;85;25447;-61
2024/02/18 00:28:06;;;;;;;1.17;0.90;;;;;;;3.15;75.56;101866.44;1680235;85;25584;-65
2024/02/18 00:30:33;;;;;;;1.27;1.12;;;;;;;3.12;75.61;101866.38;1680180;85;25613;-61
2024/02/18 00:32:59;;;;;;;1.10;1.00;;;;;;;3.10;75.62;101869.80;1680237;85;25562;-61
2024/02/18 00:35:26;;;;;;;1.15;0.70;;;;;;;3.05;75.22;101868.30;1680235;85;27332;-61
2024/02/18 00:37:55;;;;;;;1.95;1.37;;;;;;;3.03;75.67;101869.55;1680144;84;25867;-61
2024/02/18 00:40:23;;;;;;;1.17;0.90;;;;;;;3.01;75.36;101864.41;1680240;85;25466;-60
2024/02/18 00:42:50;;;;;;;1.17;0.93;;;;;;;3.02;75.56;101864.72;1680414;85;25683;-60
2024/02/18 00:45:16;;;;;;;1.17;0.80;;;;;;;3.04;75.44;101868.52;1680318;85;25484;-61
2024/02/18 00:47:46;;;;;;;1.10;0.93;;;;;;;3.03;75.25;101870.37;1680212;85;27921;-61
2024/02/18 00:50:15;;;;;;;1.30;0.95;;;;;;;3.01;75.20;101872.96;1684414;84;25445;-61
2024/02/18 00:52:41;;;;;;;1.20;0.82;;;;;;;3.00;75.23;101866.80;1695105;84;25595;-61
2024/02/18 00:55:09;;;;;;;1.05;0.88;;;;;;;2.99;75.29;101876.66;1695084;84;25618;-60
2024/02/18 00:57:36;;;;;;;1.40;1.25;;;;;;;2.98;75.41;101876.38;1695129;84;25589;-60
2024/02/18 01:00:07;;;;;;;2.92;1.30;;;;;;;3.02;75.31;101879.95;1695085;84;26835;-61
2024/02/18 01:02:33;;;;;;;0.98;0.90;;;;;;;3.04;75.50;101887.23;1695058;84;25652;-61
2024/02/18 01:05:02;;;;;;;1.25;0.80;;;;;;;3.04;75.24;101889.91;1695093;84;25585;-61
2024/02/18 01:07:30;;;;;;;0.88;0.88;;;;;;;3.04;75.26;101897.92;1695175;84;25623;-60
2024/02/18 01:09:58;;;;;;;0.80;0.80;;;;;;;3.03;75.27;101895.78;1695100;84;25472;-60
2024/02/18 01:12:26;;;;;;;0.90;0.88;;;;;;;3.01;74.84;101902.37;1695079;84;27445;-61
2024/02/18 01:14:55;;;;;;;0.88;0.88;;;;;;;2.99;74.83;101905.25;1695136;84;25959;-61
2024/02/18 01:17:22;;;;;;;0.80;0.80;;;;;;;2.97;74.87;101912.16;1695011;84;25377;-61
2024/02/18 01:19:57;;;;;;;2.45;0.90;;;;;;;2.96;75.07;101905.19;1695056;84;26366;-60
2024/02/18 01:22:17;;;;;;;1.17;0.90;;;;;;;2.94;74.90;101908.58;1693923;83;25625;-61
2024/02/18 01:24:44;;;;;;;1.37;0.80;;;;;;;2.93;74.89;101915.50;1695055;84;27897;-60
2024/02/18 01:27:10;;;;;;;1.77;1.00;;;;;;;2.91;74.96;101910.38;1694992;84;25477;-61
2024/02/18 01:29:38;;;;;;;1.82;0.90;;;;;;;2.91;74.86;101910.87;1695063;84;25522;-61
2024/02/18 01:32:07;;;;;;;1.42;0.85;;;;;;;2.91;75.04;101916.22;1695051;84;25686;-61
2024/02/18 01:34:34;;;;;;;1.00;0.93;;;;;;;2.90;75.19;101914.06;1695321;84;25573;-61
2024/02/18 01:37:00;;;;;;;1.15;1.05;;;;;;;2.89;74.71;101911.61;1695025;84;29566;-61
2024/02/18 01:39:28;;;;;;;0.88;0.88;;;;;;;2.89;74.56;101920.97;1694920;84;25358;-61
2024/02/18 01:41:56;;;;;;;0.90;0.90;;;;;;;2.88;74.77;101916.64;1695041;84;25566;-61
2024/02/18 01:44:26;;;;;;;1.12;0.85;;;;;;;2.89;74.80;101920.97;1695162;84;26396;-62
2024/02/18 01:46:54;;;;;;;1.52;1.00;;;;;;;2.89;74.78;101918.29;1695070;84;25657;-60
2024/02/18 01:49:23;;;;;;;1.10;1.00;;;;;;;2.90;74.92;101921.28;1695158;84;27326;-60
2024/02/18 01:51:52;;;;;;;0.90;0.90;;;;;;;2.91;74.91;101921.06;1694904;84;25654;-60
2024/02/18 01:54:21;;;;;;;0.55;0.55;;;;;;;2.90;74.90;101912.73;1693285;84;25468;-59
2024/02/18 01:56:50;;;;;;;1.32;1.00;;;;;;;2.92;74.77;101921.34;1695123;84;25691;-59
2024/02/18 01:59:18;;;;;;;1.32;0.90;;;;;;;2.94;74.62;101923.27;1675286;84;25497;-59
2024/02/18 02:01:44;;;;;;;1.27;0.72;;;;;;;2.94;74.68;101920.60;1695039;84;27338;-60
2024/02/18 02:04:12;;;;;;;2.75;1.10;;;;;;;2.94;74.36;101921.94;1695046;84;25891;-60
2024/02/18 02:06:39;;;;;;;1.42;1.10;;;;;;;2.93;74.24;101925.67;1695023;84;25623;-60
2024/02/18 02:09:07;;;;;;;1.00;0.90;;;;;;;2.91;73.83;101920.22;1695006;84;26407;-61
2024/02/18 02:11:36;;;;;;;2.77;1.20;;;;;;;2.89;73.88;101931.66;1695140;84;25570;-60
2024/02/18 02:14:04;;;;;;;1.30;0.90;;;;;;;2.88;73.88;101936.19;1695014;84;27946;-60
2024/02/18 02:16:30;;;;;;;2.60;1.45;;;;;;;;;;1695001;84;25421;-60
2024/02/18 02:19:01;;;;;;;1.12;1.00;;;;;;;2.88;73.69;101928.67;1694989;84;25502;-60
2024/02/18 02:21:27;;;;;;;2.62;1.20;;;;;;;2.87;73.65;101931.06;1694994;84;25738;-61
2024/02/18 02:23:54;;;;;;;2.00;0.80;;;;;;;2.87;73.79;101936.41;1695056;84;25631;-59
2024/02/18 02:26:22;;;;;;;1.17;0.82;;;;;;;2.86;73.53;101928.91;1694968;84;27334;-60
2024/02/18 02:29:15;;;;;;;1.67;0.90;;;;;;;2.84;73.71;101929.63;1695000;84;25709;-60
2024/02/18 02:31:46;;;;;;;1.10;1.00;;;;;;;2.84;73.50;101934.16;1695117;84;25390;-61
2024/02/18 02:34:15;;;;;;;0.90;0.78;;;;;;;2.84;73.40;101930.16;1695009;84;25737;-62
2024/02/18 02:36:43;;;;;;;0.90;0.90;;;;;;;2.83;73.40;101925.83;1695179;84;25420;-62
2024/02/18 02:39:11;;;;;;;1.27;1.17;;;;;;;2.80;73.29;101934.59;1695005;84;27983;-61
2024/02/18 02:41:39;;;;;;;0.93;0.93;;;;;;;2.79;73.13;101930.30;1694944;84;25575;-61
2024/02/18 02:44:06;;;;;;;1.27;0.90;;;;;;;2.77;72.76;101931.53;1695043;84;25447;-60
2024/02/18 02:46:33;;;;;;;0.93;0.93;;;;;;;2.77;72.85;101934.20;1695057;84;26188;-60
2024/02/18 02:48:59;;;;;;;0.85;0.85;;;;;;;2.77;72.80;101930.20;1695014;84;25617;-61
2024/02/18 02:51:26;;;;;;;0.90;0.90;;;;;;;2.76;72.83;101937.93;1694909;84;28360;-61
2024/02/18 02:53:54;;;;;;;0.82;0.70;;;;;;;2.77;72.75;101949.71;1694898;84;25448;-61
2024/02/18 02:56:20;;;;;;;1.17;0.88;;;;;;;2.78;72.69;101950.03;1695048;84;25638;-61
2024/02/18 02:58:47;;;;;;;0.82;0.80;;;;;;;2.79;72.91;101957.02;1694987;84;26225;-60
2024/02/18 03:01:15;;;;;;;1.02;0.93;;;;;;;2.83;72.90;101956.56;1695065;84;25565;-60
2024/02/18 03:03:41;;;;;;;1.37;1.17;;;;;;;2.85;73.01;101954.52;1695046;84;27333;-60
2024/02/18 03:06:09;;;;;;;1.37;0.85;;;;;;;2.87;72.96;101957.78;1694889;84;27174;-61
2024/02/18 03:08:36;;;;;;;1.02;0.75;;;;;;;2.87;72.86;101959.94;1695011;84;25565;-61
2024/02/18 03:11:04;;;;;;;1.15;1.00;;;;;;;2.88;73.09;101962.92;1694942;84;25731;-60
2024/02/18 03:13:32;;;;;;;0.93;0.82;;;;;;;2.89;73.05;101958.38;1695070;84;25499;-61
2024/02/18 03:15:59;;;;;;;1.52;0.95;;;;;;;2.88;72.82;101961.59;1695026;84;27416;-61
2024/02/18 03:18:25;;;;;;;1.10;1.00;;;;;;;2.86;72.63;101969.50;1694928;84;25395;-60
2024/02/18 03:20:52;;;;;;;1.10;1.02;;;;;;;2.87;72.80;101963.94;1695006;84;25628;-59
2024/02/18 03:23:20;;;;;;;1.32;0.90;;;;;;;2.87;72.83;101974.63;1675287;84;25689;-60
2024/02/18 03:25:48;;;;;;;0.80;0.80;;;;;;;2.88;72.91;101976.78;1695035;84;25456;-59
2024/02/18 03:28:14;;;;;;;1.00;1.00;;;;;;;2.89;73.08;101975.76;1694986;84;27333;-60
2024/02/18 03:30:44;;;;;;;1.72;0.80;;;;;;;2.90;72.94;101979.55;1694879;84;25565;-59
2024/02/18 03:33:10;;;;;;;1.37;1.10;;;;;;;2.92;72.92;101973.47;1694967;84;25507;-60
2024/02/18 03:35:37;;;;;;;4.03;1.20;;;;;;;2.91;72.92;101973.19;1695010;84;25630;-60
2024/02/18 03:38:05;;;;;;;1.22;0.90;;;;;;;2.89;72.51;101972.56;1695043;84;25632;-59
2024/02/18 03:40:32;;;;;;;1.35;1.00;;;;;;;2.87;72.39;101969.81;1695075;84;28111;-59
2024/02/18 03:42:59;;;;;;;1.22;0.90;;;;;;;2.88;72.53;101979.45;1695099;84;25611;-58
2024/02/18 03:45:27;;;;;;;0.90;0.90;;;;;;;2.86;72.28;101986.37;1695141;84;25625;-60
2024/02/18 03:47:54;;;;;;;1.40;0.95;;;;;;;2.86;72.49;101987.72;1737455;82;25639;-60
2024/02/18 03:50:20;;;;;;;2.60;1.02;;;;;;;2.87;72.42;101984.52;1730654;82;25415;-61
2024/02/18 03:52:46;;;;;;;1.35;1.00;;;;;;;2.89;72.45;101986.45;1757709;81;27911;-60
2024/02/18 03:55:16;;;;;;;1.27;0.98;;;;;;;2.89;72.53;101985.92;1759663;81;25390;-60
2024/02/18 03:57:45;;;;;;;1.25;1.15;;;;;;;2.89;72.46;101991.80;1759832;81;25550;-59
2024/02/18 04:00:13;;;;;;;1.05;0.90;;;;;;;2.87;72.43;101992.01;1759732;81;25624;-59
2024/02/18 04:02:42;;;;;;;1.55;0.80;;;;;;;2.89;72.50;101994.47;1759374;81;25390;-60
2024/02/18 04:05:13;;;;;;;1.15;1.10;;;;;;;2.89;72.44;102001.96;1741559;81;28023;-60
2024/02/18 04:07:39;;;;;;;1.17;1.02;;;;;;;2.88;72.64;101998.16;1741355;82;25540;-60
2024/02/18 04:10:09;;;;;;;0.80;0.80;;;;;;;2.90;72.62;102002.80;1741366;82;25451;-59
2024/02/18 04:12:36;;;;;;;2.15;1.27;;;;;;;2.88;72.52;102000.34;1741515;82;32420;-60
2024/02/18 04:15:06;;;;;;;4.15;1.20;;;;;;;2.88;72.43;101998.16;1703181;84;25584;-59
2024/02/18 04:17:34;;;;;;;1.67;1.05;;;;;;;2.86;72.72;102001.08;1703273;84;28217;-60
2024/02/18 04:20:00;;;;;;;2.12;1.15;;;;;;;2.88;72.76;102004.84;1673311;85;25623;-59
2024/02/18 04:22:26;;;;;;;1.57;1.05;;;;;;;2.90;72.77;102011.62;1703143;84;25394;-60
2024/02/18 04:24:53;;;;;;;2.37;1.22;;;;;;;2.89;72.70;102001.15;1703117;83;25967;-61
2024/02/18 04:27:21;;;;;;;3.35;1.35;;;;;;;2.89;72.81;102000.63;1689830;84;25625;-59
2024/02/18 04:29:47;;;;;;;5.28;1.02;;;;;;;2.90;72.94;102002.80;1689858;84;27321;-59
2024/02/18 04:32:15;;;;;;;1.12;1.02;;;;;;;2.90;73.01;102010.82;1689750;84;25751;-59
2024/02/18 04:34:41;;;;;;;1.10;1.00;;;;;;;2.91;73.08;102010.61;1689820;84;25689;-60
2024/02/18 04:37:07;;;;;;;1.72;0.90;;;;;;;2.92;73.27;102011.42;1689857;84;25610;-59
2024/02/18 04:39:34;;;;;;;1.12;1.02;;;;;;;2.89;72.94;102012.66;1689904;84;25569;-58
2024/02/18 04:42:00;;;;;;;0.90;0.90;;;;;;;2.89;72.99;102018.00;1689850;84;27511;-61
2024/02/18 04:44:28;;;;;;;4.33;1.00;;;;;;;2.88;73.03;102015.54;1689800;84;25582;-61
2024/02/18 04:46:54;;;;;;;1.55;0.88;;;;;;;2.86;72.95;102011.77;1689845;84;25461;-61
2024/02/18 04:49:21;;;;;;;1.00;0.90;;;;;;;2.86;73.07;102012.27;1689838;84;25737;-60
2024/02/18 04:51:47;;;;;;;1.07;0.88;;;;;;;2.86;73.07;102012.27;1682829;84;25437;-61
2024/02/18 04:54:14;;;;;;;1.17;1.07;;;;;;;2.85;73.12;102020.81;1651205;86;28021;-61
2024/02/18 04:56:41;;;;;;;0.82;0.82;;;;;;;2.83;73.29;102016.70;1651221;86;25574;-61
2024/02/18 04:59:08;;;;;;;0.98;0.90;;;;;;;2.81;73.24;102012.94;1652368;86;25563;-61
2024/02/18 05:01:37;;;;;;;1.22;0.90;;;;;;;2.79;72.95;102013.14;1664376;85;26474;-61
2024/02/18 05:04:04;;;;;;;1.40;1.00;;;;;;;2.79;72.89;102012.30;1664426;85;25588;-61
2024/02/18 05:06:30;;;;;;;1.32;0.93;;;;;;;2.77;72.67;102013.84;1664356;85;29449;-61
2024/02/18 05:08:57;;;;;;;0.95;0.90;;;;;;;2.76;72.78;102012.76;1664295;86;25497;-61
2024/02/18 05:11:23;;;;;;;0.85;0.85;;;;;;;2.76;72.62;102018.91;1664401;86;25633;-61
2024/02/18 05:13:51;;;;;;;0.80;0.80;;;;;;;2.76;72.36;102019.44;1664342;85;25662;-61
2024/02/18 05:16:19;;;;;;;1.25;0.90;;;;;;;2.69;71.67;102013.28;1664392;86;25400;-60
2024/02/18 05:18:48;;;;;;;1.25;0.55;;;;;;;2.64;71.63;102005.09;1664331;85;27350;-61
2024/02/18 05:21:16;;;;;;;1.87;0.90;;;;;;;2.61;71.53;102007.69;1664490;85;25729;-61
2024/02/18 05:23:43;;;;;;;0.60;0.60;;;;;;;2.60;71.62;102015.39;1664325;86;25440;-61
2024/02/18 05:26:12;;;;;;;0.80;0.70;;;;;;;2.59;71.78;102018.59;1664314;85;25668;-61
2024/02/18 05:28:38;;;;;;;0.80;0.80;;;;;;;2.59;71.82;102020.45;1640077;86;25618;-61
2024/02/18 05:31:13;;;;;;;0.60;0.60;;;;;;;2.60;71.78;102024.22;1664344;86;29520;-61
2024/02/18 05:33:41;;;;;;;0.98;0.80;;;;;;;2.58;71.83;102018.27;1656649;85;25472;-61
2024/02/18 05:36:09;;;;;;;1.12;0.85;;;;;;;2.58;71.84;102026.81;1664337;85;25454;-61
2024/02/18 05:38:36;;;;;;;1.60;1.05;;;;;;;2.54;71.79;102025.09;1664344;85;25635;-61
2024/02/18 05:41:06;;;;;;;1.92;1.00;;;;;;;2.51;71.63;102022.02;1664365;85;25471;-61
2024/02/18 05:43:32;;;;;;;2.92;1.30;;;;;;;2.48;71.76;102035.80;1664334;85;27500;-61
2024/02/18 05:45:59;;;;;;;2.42;1.30;;;;;;;2.45;71.85;102037.55;1673574;85;25633;-61
2024/02/18 05:48:25;;;;;;;1.52;1.10;;;;;;;2.42;71.87;102038.28;1651203;86;25464;-61
2024/02/18 05:50:54;;;;;;;2.17;1.20;;;;;;;2.39;72.00;102045.38;1652650;86;26242;-61
2024/02/18 05:53:21;;;;;;;2.72;1.80;;;;;;;2.36;72.26;102051.13;1680140;84;25593;-62
2024/02/18 05:55:49;;;;;;;6.30;2.02;;;;;;;2.35;72.47;102048.67;1688691;85;27454;-61
2024/02/18 05:58:16;;;;;;;6.37;2.33;;;;;;;2.31;72.46;102062.97;1714327;83;25297;-61
2024/02/18 06:00:44;;;;;;;4.17;2.00;;;;;;;2.32;72.76;102068.63;1708555;83;25557;-61
2024/02/18 06:03:12;;;;;;;5.42;1.85;;;;;;;2.31;72.79;102067.49;1687840;85;25623;-61
2024/02/18 06:05:38;;;;;;;11.20;2.27;;;;;;;2.31;72.97;102068.30;1738662;82;25548;-61
2024/02/18 06:08:06;;;;;;;4.62;2.27;;;;;;;2.31;73.12;102074.17;1725614;83;27916;-60
2024/02/18 06:10:33;;;;;;;4.05;1.72;;;;;;;2.30;73.29;102074.69;1725543;82;25491;-60
2024/02/18 06:13:01;;;;;;;2.95;1.50;;;;;;;2.31;73.40;102078.98;1725634;83;25609;-61
2024/02/18 06:15:27;;;;;;;4.97;1.80;;;;;;;2.34;73.34;102077.77;1725527;83;25676;-61
2024/02/18 06:17:58;;;;;;;2.25;1.57;;;;;;;2.33;73.16;102080.11;1725572;83;25537;-61
2024/02/18 06:20:21;;;;;;;2.80;1.40;;;;;;;2.34;73.49;102084.44;1725455;82;27946;-60
2024/02/18 06:22:48;;;;;;;2.55;1.30;;;;;;;2.36;73.55;102083.19;1725509;82;25394;-61
2024/02/18 06:25:14;;;;;;;2.15;1.30;;;;;;;2.38;73.56;102083.82;1725590;83;25616;-60
2024/02/18 06:27:44;;;;;;;4.67;1.65;;;;;;;2.40;73.79;102091.59;1725639;82;26571;-59
2024/02/18 06:30:14;;;;;;;2.70;1.45;;;;;;;2.43;73.64;102086.67;1725851;83;25435;-60
2024/02/18 06:32:40;;;;;;;2.87;1.80;;;;;;;2.45;73.88;102087.77;1725611;83;27324;-60
2024/02/18 06:35:09;;;;;;;4.33;1.95;;;;;;;2.48;74.17;102086.02;1725482;82;25577;-58
2024/02/18 06:37:37;;;;;;;4.28;2.02;;;;;;;2.49;73.99;102088.20;1725616;82;25652;-59
2024/02/18 06:40:07;;;;;;;2.47;1.80;;;;;;;2.50;73.82;102089.30;1725717;83;25652;-60
2024/02/18 06:42:33;;;;;;;;;;;;;;;2.49;73.95;102097.03;1728236;82;25440;-59
2024/02/18 06:44:59;;;;;;;2.85;1.67;;;;;;;2.50;73.88;102097.84;1725635;83;28031;-59
2024/02/18 06:47:26;;;;;;;5.25;1.52;;;;;;;2.50;74.04;102093.30;1725536;82;25612;-60
2024/02/18 06:49:54;;;;;;;2.08;1.72;;;;;;;2.51;74.00;102102.16;1725617;82;25441;-60
2024/02/18 06:52:21;;;;;;;2.72;1.67;;;;;;;2.50;73.98;102098.65;1727174;82;25628;-60
2024/02/18 06:54:48;;;;;;;4.70;2.33;;;;;;;2.52;74.15;102092.61;1730537;82;25625;-59
2024/02/18 06:57:15;;;;;;;7.22;2.40;;;;;;;2.53;74.14;102099.57;1730501;82;27330;-60
2024/02/18 06:59:41;;;;;;;7.05;3.42;;;;;;;2.54;74.35;102097.22;1730455;82;25809;-60
2024/02/18 07:02:07;;;;;;;7.97;3.22;;;;;;;2.62;74.62;102100.16;1730495;82;25609;-60
2024/02/18 07:04:34;;;;;;;3.17;2.02;;;;;;;2.76;75.72;102104.95;1730500;82;25638;-61
2024/02/18 07:07:02;;;;;;;6.95;3.12;;;;;;;3.07;77.40;102106.03;1730567;82;25407;-61
2024/02/18 07:09:28;;;;;;;6.72;3.15;;;;;;;3.44;78.19;102109.72;1730514;82;27384;-61
2024/02/18 07:11:54;;;;;;;5.45;2.80;;;;;;;3.74;77.45;102101.84;1730457;82;25563;-60
2024/02/18 07:14:21;;;;;;;2.40;1.62;;;;;;;4.15;77.71;102107.66;1709988;82;25663;-61
2024/02/18 07:16:47;;;;;;;3.42;1.85;;;;;;;4.58;78.56;102109.49;1730589;82;26490;-62
2024/02/18 07:19:13;;;;;;;2.45;1.60;;;;;;;4.99;76.12;102107.14;1730651;82;25546;-60
2024/02/18 07:21:40;;;;;;;2.35;1.70;;;;;;;5.27;74.59;102111.89;1730664;82;27330;-61
2024/02/18 07:24:08;;;;;;;2.22;1.27;;;;;;;5.47;73.41;102126.89;1730515;82;25447;-61
2024/02/18 07:26:35;;;;;;;2.37;1.50;;;;;;;5.71;72.39;102127.22;1730735;82;25509;-61
2024/02/18 07:29:05;;;;;;;2.87;1.30;;;;;;;5.98;73.57;102123.60;1730852;82;26662;-61
2024/02/18 07:31:32;;;;;;;3.05;1.22;;;;;;;6.45;73.42;102119.25;1730709;82;25622;-61
2024/02/18 07:33:58;;;;;;;2.33;1.20;;;;;;;6.77;71.60;102118.30;1730612;82;29548;-61
2024/02/18 07:36:24;;;;;;;1.60;1.42;;;;;;;7.13;70.46;102122.20;1730527;82;25460;-62
2024/02/18 07:38:51;;;;;;;1.17;0.90;;;;;;;7.46;70.61;102115.55;1730645;82;25669;-62
2024/02/18 07:41:18;;;;;;;1.92;1.00;;;;;;;7.78;69.18;102115.00;1730621;82;25691;-64
2024/02/18 07:43:45;;;;;;;1.37;0.95;;;;;;;8.20;68.70;102117.21;1730751;82;25583;-63
2024/02/18 07:46:12;;;;;;;2.60;1.10;;;;;;;8.40;66.64;102122.62;1730645;82;27901;-63
2024/02/18 07:48:39;;;;;;;1.20;0.93;;;;;;;8.54;65.26;102119.85;1730581;82;25204;-63
2024/02/18 07:51:05;;;;;;;1.20;0.85;;;;;;;8.78;65.07;102115.05;1730738;82;25637;-62
2024/02/18 07:53:34;;;;;;;2.10;1.22;;;;;;;8.92;64.43;102118.17;1730502;82;25851;-61
2024/02/18 07:56:00;;;;;;;2.37;0.93;;;;;;;9.19;64.19;102119.23;1730637;81;25534;-62
2024/02/18 07:58:26;;;;;;;1.55;0.80;;;;;;;9.46;63.06;102125.44;1730639;81;27385;-62
2024/02/18 08:00:52;;;;;;;1.05;0.80;;;;;;;9.79;63.23;102122.73;1730540;82;25466;-62
2024/02/18 08:03:20;;;;;;;2.50;1.12;;;;;;;10.07;62.84;102113.48;1730642;82;25598;-61
2024/02/18 08:05:47;;;;;;;5.03;0.90;;;;;;;10.31;61.38;102115.23;1730633;82;26330;-62
2024/02/18 08:08:15;;;;;;;2.47;1.00;;;;;;;10.65;61.20;102121.09;1730655;82;25383;-62
2024/02/18 08:10:43;;;;;;;1.95;1.27;;;;;;;10.92;60.07;102107.92;1730734;82;27938;-62
2024/02/18 08:13:09;;;;;;;2.55;0.70;;;;;;;11.29;59.88;102120.98;1730571;82;25545;-63
2024/02/18 08:15:37;;;;;;;2.75;1.07;;;;;;;11.47;57.68;102116.95;1730564;82;25601;-63
2024/02/18 08:18:07;;;;;;;6.97;1.27;;;;;;;11.80;57.95;102119.67;1730683;82;25710;-63
2024/02/18 08:20:37;;;;;;;2.12;0.80;;;;;;;12.26;57.65;102123.69;1730774;82;25379;-63
2024/02/18 08:23:06;;;;;;;1.55;0.90;;;;;;;12.36;55.36;102127.45;1730760;82;28365;-62
2024/02/18 08:25:34;;;;;;;1.57;1.25;;;;;;;12.26;54.52;102135.89;1730568;82;25567;-63
2024/02/18 08:28:03;;;;;;;1.62;1.20;;;;;;;12.27;53.13;102133.98;1730622;82;25430;-63
2024/02/18 08:30:30;;;;;;;5.25;1.17;;;;;;;12.02;51.67;102130.77;1730694;82;25628;-63
2024/02/18 08:32:56;;;;;;;1.32;1.10;;;;;;;11.77;52.19;102124.27;1730644;82;25447;-63
2024/02/18 08:35:23;;;;;;;5.33;1.10;;;;;;;11.57;51.11;102125.09;1730569;82;27231;-64
2024/02/18 08:37:52;;;;;;;3.87;1.32;;;;;;;11.41;51.53;102120.21;1730547;82;25603;-63
2024/02/18 08:40:19;;;;;;;1.40;1.20;;;;;;;11.67;53.69;102112.89;1730586;82;25601;-64
2024/02/18 08:42:45;;;;;;;1.95;1.10;;;;;;;12.05;53.12;102120.73;1730560;82;26167;-64
2024/02/18 08:45:11;;;;;;;2.15;0.80;;;;;;;12.41;52.26;102124.72;1730602;82;25574;-63
2024/02/18 08:47:38;;;;;;;1.75;0.98;;;;;;;12.66;51.51;102121.09;1730592;82;27919;-63
2024/02/18 08:50:10;;;;;;;2.12;1.30;;;;;;;12.68;50.66;102121.10;1730591;82;25869;-61
2024/02/18 08:52:38;;;;;;;1.15;0.90;;;;;;;13.02;50.74;102120.91;1730515;82;25836;-64
2024/02/18 08:55:07;;;;;;;3.12;1.20;;;;;;;12.95;48.61;102129.92;1730560;82;25710;-64
2024/02/18 08:57:33;;;;;;;1.15;0.88;;;;;;;12.76;49.31;102129.75;1730712;82;33393;-64
2024/02/18 09:00:01;;;;;;;2.12;1.00;;;;;;;13.05;49.62;102120.35;1730536;82;27356;-64
2024/02/18 09:02:29;;;;;;;1.05;0.80;;;;;;;13.54;49.53;102122.77;1730606;82;25794;-64
2024/02/18 09:04:59;;;;;;;3.02;0.70;;;;;;;13.79;48.28;102119.00;1730611;82;25401;-64
2024/02/18 09:07:24;;;;;;;0.90;0.65;;;;;;;14.13;48.67;102115.41;1729895;82;25707;-66
2024/02/18 09:09:50;;;;;;;4.75;2.75;;;;;;;14.68;47.73;102113.16;1730696;82;25650;-64
2024/02/18 09:12:16;;;;;;;1.37;0.80;;;;;;;15.34;47.86;102111.13;1730659;82;28040;-64
2024/02/18 09:14:43;;;;;;;1.05;0.70;;;;;;;16.10;45.79;102118.58;1730594;82;25558;-64
2024/02/18 09:17:10;;;;;;;1.85;1.02;;;;;;;16.50;44.63;102115.33;1730534;82;25623;-64
2024/02/18 09:19:36;;;;;;;2.70;1.10;;;;;;;17.31;43.90;102111.93;1730547;82;25627;-65
2024/02/18 09:22:02;;;;;;;1.22;0.70;;;;;;;17.90;42.98;102116.76;1730614;82;25573;-64
2024/02/18 09:24:29;;;;;;;2.50;0.60;;;;;;;18.36;42.44;102118.00;1730520;82;27364;-64
2024/02/18 09:26:55;;;;;;;0.60;0.50;;;;;;;18.51;41.46;102114.81;1730452;82;25398;-64
2024/02/18 09:29:21;;;;;;;0.57;0.50;;;;;;;18.46;40.41;102109.48;1730629;82;25547;-64
2024/02/18 09:31:48;;;;;;;1.12;0.70;;;;;;;18.52;40.58;102109.56;1730517;82;25543;-64
2024/02/18 09:34:16;;;;;;;1.77;0.57;;;;;;;18.69;40.29;102121.70;1730522;82;25391;-64
2024/02/18 09:36:43;;;;;;;1.42;0.70;;;;;;;18.73;39.21;102118.55;1730649;82;27680;-65
2024/02/18 09:39:11;;;;;;;1.02;0.50;;;;;;;18.73;39.21;102118.55;1730507;82;25562;-64
2024/02/18 09:41:43;;;;;;;1.82;0.75;;;;;;;18.80;38.70;102121.07;1730542;82;25605;-64
2024/02/18 09:44:14;;;;;;;1.30;0.60;;;;;;;18.64;38.44;102118.53;1730599;82;25628;-64
2024/02/18 09:46:43;;;;;;;0.30;0.30;;;;;;;18.73;38.23;102124.86;1730726;82;25651;-65
2024/02/18 09:49:14;;;;;;;1.65;0.70;;;;;;;18.50;37.28;102120.61;1730569;82;27227;-66
2024/02/18 09:51:40;;;;;;;1.55;0.53;;;;;;;17.59;36.67;102120.83;1730526;82;25583;-65
2024/02/18 09:54:09;;;;;;;1.80;0.60;;;;;;;16.99;37.59;102111.02;1738591;81;25532;-65
2024/02/18 09:56:36;;;;;;;1.15;0.60;;;;;;;17.03;37.83;102098.37;1741382;82;26479;-64
2024/02/18 09:59:05;;;;;;;1.12;0.60;;;;;;;17.28;38.50;102101.61;1741329;82;25417;-64
2024/02/18 10:01:36;;;;;;;1.87;0.70;;;;;;;17.77;38.13;102101.20;1741418;82;27298;-65
2024/02/18 10:04:06;;;;;;;0.95;0.70;;;;;;;18.36;38.42;102092.77;1741225;82;25582;-63
2024/02/18 10:06:35;;;;;;;;;;;;;;;18.82;38.07;102089.23;1743903;82;25637;-64
2024/02/18 10:09:03;;;;;;;3.65;0.60;;;;;;;18.59;36.59;102091.28;1741452;82;26516;-64
2024/02/18 10:11:32;;;;;;;0.77;0.43;;;;;;;18.42;36.35;102085.20;1741621;81;25446;-60
2024/02/18 10:14:00;;;;;;;1.77;0.70;;;;;;;17.98;35.81;102087.82;1741430;82;27342;-58
2024/02/18 10:16:28;;;;;;;1.40;0.60;;;;;;;17.63;36.68;102090.91;1741423;82;25604;-59
2024/02/18 10:18:57;;;;;;;0.80;0.60;;;;;;;17.56;36.88;102087.25;1741410;82;25571;-57
2024/02/18 10:21:26;;;;;;;1.55;0.50;;;;;;;17.66;36.79;102084.81;1741379;82;25605;-60
2024/02/18 10:23:56;;;;;;;1.10;0.53;;;;;;;17.95;36.85;102086.28;1741436;82;25528;-60
2024/02/18 10:26:23;;;;;;;0.88;0.53;;;;;;;18.10;36.25;102085.86;1741306;82;28074;-60
2024/02/18 10:28:53;;;;;;;13.00;8.33;;;;;;;17.69;35.44;102091.83;1741187;81;26041;-60
2024/02/18 10:31:21;;;;;;;6.80;3.83;;;;;;;17.43;35.53;102093.02;1741356;81;25498;-67
2024/02/18 10:33:51;;;;;;;45.73;33.18;;;;;;;17.01;35.65;102092.95;1741430;82;25615;-66
2024/02/18 10:36:21;;;;;;;5.08;2.75;;;;;;;16.83;36.55;102075.58;1741300;82;25618;-67
2024/02/18 10:38:52;;;;;;;1.47;0.78;;;;;;;17.32;36.03;102073.34;1741268;82;27914;-55
2024/02/18 10:41:24;;;;;;;0.60;0.42;;;;;;;17.03;36.09;102074.34;1703044;84;25631;-53
2024/02/18 10:43:56;;;;;;;1.07;0.90;;;;;;;17.32;36.88;102062.39;1702733;83;25598;-55
2024/02/18 10:46:24;;;;;;;1.52;0.88;;;;;;;17.68;36.26;102064.78;1703037;83;25688;-56
2024/02/18 10:49:03;;;;;;;1.12;0.62;;;;;;;17.95;35.79;102060.27;1679808;84;25496;-57
2024/02/18 10:51:38;;;;;;;1.35;0.70;;;;;;;18.11;35.13;102060.86;1702718;84;27509;-59
2024/02/18 10:54:47;;;;;;;1.12;0.78;;;;;;;17.86;34.48;102059.67;1725293;82;25614;-59
2024/02/18 10:57:21;;;;;;;1.60;0.80;;;;;;;18.33;34.67;102061.11;1713202;83;25554;-58
2024/02/18 10:59:59;;;;;;;1.12;0.78;;;;;;;18.34;35.25;102049.83;1713280;83;25645;-55
2024/02/18 11:02:33;;;;;;;1.22;0.93;;;;;;;19.48;35.10;102036.09;1714281;83;25572;-59
2024/02/18 11:05:03;;;;;;;1.12;0.60;;;;;;;20.80;34.46;102039.78;1713616;82;27331;-56
2024/02/18 11:07:31;;;;;;;3.85;1.35;;;;;;;21.54;33.07;102039.48;1710186;82;25557;-59
2024/02/18 11:10:00;;;;;;;2.27;1.13;;;;;;;21.26;31.58;102034.55;1706114;84;25391;-57
2024/02/18 11:12:30;;;;;;;1.07;0.72;;;;;;;20.05;31.11;102033.56;1705973;84;25718;-56
2024/02/18 11:15:02;;;;;;;2.52;1.00;;;;;;;18.99;31.50;102033.62;1711330;82;25405;-57
2024/02/18 11:17:31;;;;;;;1.55;0.80;;;;;;;18.00;31.66;102030.81;1715740;82;27386;-67
2024/02/18 11:20:00;;;;;;;16.75;12.07;;;;;;;17.23;32.69;102023.27;1709456;83;25601;-66
2024/02/18 11:22:30;;;;;;;17.77;15.38;;;;;;;16.77;33.61;102022.41;1706020;82;25439;-66
2024/02/18 11:24:57;;;;;;;1.52;1.17;;;;;;;16.47;33.89;102023.91;1710936;83;25663;-67
2024/02/18 11:27:26;;;;;;;1.30;0.90;;;;;;;16.03;33.88;102014.45;1710670;83;25556;-64
2024/02/18 11:29:55;;;;;;;1.85;1.00;;;;;;;15.69;34.06;102011.53;1705952;82;27427;-65
2024/02/18 11:32:23;;;;;;;2.95;1.50;;;;;;;15.40;33.83;102016.69;1711590;82;25444;-65
2024/02/18 11:34:49;;;;;;;1.40;1.30;;;;;;;14.89;34.33;102003.35;1709799;83;25472;-65